PAKT Airport Information

Runway Information
Runway 11 Length 7500 ft width 150 ft
Elevation 82 ft Threshold 0 ft Heading 136
Runway 29 Length 7500 ft Width 150 ft
Elevation 89 ft Threshold 0 ft Heading 316
Runway ESE Length 9500 ft width 1500 ft
Elevation 0 ft Threshold 0 ft Heading 0
Runway WNW Length 9500 ft Width 1500 ft
Elevation 0 ft Threshold 0 ft Heading 0
Airport Frequencies
Type ATIS Name ATIS Frequency 119.9 MHZ
Type CNTR Name ANCHORAGE Frequency 118.5 MHZ
Type CTAF Name CTAF Frequency 123.6 MHZ
Type FSS Name RDO Frequency 123.6 MHZ
Type UNIC Name UNICOM Frequency 122.95 MHZ
Airport Navaids
Type NDB Name Clam Cove Frequency 396 KHZ
Airport Weather Information & NOTAM
ADDS - METARS form results

(1404 UTC 01 December 2020)
Data provider http://aviationweather.gov/metar/data/
 
METAR text: PAKT 011353Z AUTO 14023G39KT 2 1/2SM RA BR OVC021 08/07 A3005 RMK AO2 PK WND 13047/1255 SLP177 P0025 T00780067 TSNO
Conditions at: PAKT (KETCHIKAN , AK, US) observed 1353 UTC 01 December 2020
Temperature: 7.8°C (46°F)
Dewpoint: 6.7°C (44°F) [RH = 93%]
Pressure (altimeter): 30.05 inches Hg (1017.7 mb)
[Sea-level pressure: 1017.7 mb]
Winds: from the SE (140 degrees) at 26 MPH (23 knots; 11.8 m/s)
gusting to 45 MPH (39 knots; 20.1 m/s)
Visibility: 2.50 miles (4.02 km)
Ceiling: 2100 feet AGL
Clouds: overcast cloud deck at 2100 feet AGL
Weather: RA BR  (moderate rain, mist)

METAR text: PAKT 011346Z AUTO 14025G37KT 3SM RA BR OVC021 08/07 A3004 RMK AO2 PK WND 13047/1255 P0020 T00780067 TSNO
Conditions at: PAKT (KETCHIKAN , AK, US) observed 1346 UTC 01 December 2020
Temperature: 7.8°C (46°F)
Dewpoint: 6.7°C (44°F) [RH = 93%]
Pressure (altimeter): 30.04 inches Hg (1017.4 mb)
Winds: from the SE (140 degrees) at 29 MPH (25 knots; 12.9 m/s)
gusting to 43 MPH (37 knots; 19.0 m/s)
Visibility: 3 miles ( 5 km)
Ceiling: 2100 feet AGL
Clouds: overcast cloud deck at 2100 feet AGL
Weather: RA BR  (moderate rain, mist)

METAR text: PAKT 011336Z AUTO 14023G45KT 2 1/2SM RA BR OVC021 08/07 A3005 RMK AO2 PK WND 13047/1255 P0017 T00780067 TSNO
Conditions at: PAKT (KETCHIKAN , AK, US) observed 1336 UTC 01 December 2020
Temperature: 7.8°C (46°F)
Dewpoint: 6.7°C (44°F) [RH = 93%]
Pressure (altimeter): 30.05 inches Hg (1017.7 mb)
Winds: from the SE (140 degrees) at 26 MPH (23 knots; 11.8 m/s)
gusting to 52 MPH (45 knots; 23.1 m/s)
Visibility: 2.50 miles (4.02 km)
Ceiling: 2100 feet AGL
Clouds: overcast cloud deck at 2100 feet AGL
Weather: RA BR  (moderate rain, mist)

Forecast for: PAKT (KETCHIKAN , AK, US)
Text: PAKT 011139Z 0112/0212 13025G40KT 4SM RA OVC025 WS020/17065KT
Forecast period: 1200 to 2100 UTC 01 December 2020
Forecast type: FROM: standard forecast or significant change
Winds: from the SE (130 degrees) at 29 MPH (25 knots; 12.9 m/s)
gusting to 46 MPH (40 knots; 20.6 m/s)
Visibility: 4 miles (6 km)
Ceiling: 2500 feet AGL
Clouds: overcast cloud deck at 2500 feet AGL
Wind Shear: at 2000 feet ( 610 m) AGL, from the S (170 degrees) at 75 MPH (65 knots; 33.8 m/s)
Weather: RA  (moderate rain)
Text: FM012100 14020G30KT 4SM RA BKN015 OVC025 WS020/16065KT AMD LTD TO CLD VIS AND WIND 0112/0115
Forecast period: 2100 UTC 01 December 2020 to 1200 UTC 02 December 2020
Forecast type: FROM: standard forecast or significant change
Winds: from the SE (140 degrees) at 23 MPH (20 knots; 10.3 m/s)
gusting to 34 MPH (30 knots; 15.4 m/s)
Visibility: 4 miles (6 km)
Ceiling: 1500 feet AGL
Clouds: broken clouds at 1500 feet AGL
overcast cloud deck at 2500 feet AGL
Wind Shear: at 2000 feet ( 610 m) AGL, from the SSE (160 degrees) at 75 MPH (65 knots; 33.8 m/s)
Weather: RA  (moderate rain)